sensor_id;sensor_type;location;lat;lon;timestamp;temperature;humidity
7002;DHT22;3541;53.230;10.518;2024-02-15T00:00:19;10.50;99.90
7002;DHT22;3541;53.230;10.518;2024-02-15T00:02:46;10.50;99.90
7002;DHT22;3541;53.230;10.518;2024-02-15T00:05:14;10.50;99.90
7002;DHT22;3541;53.230;10.518;2024-02-15T00:07:41;10.50;99.90
7002;DHT22;3541;53.230;10.518;2024-02-15T00:10:09;10.50;99.90
7002;DHT22;3541;53.230;10.518;2024-02-15T00:12:36;10.50;99.90
7002;DHT22;3541;53.230;10.518;2024-02-15T00:15:03;10.50;99.90
7002;DHT22;3541;53.230;10.518;2024-02-15T00:17:30;10.50;99.90
7002;DHT22;3541;53.230;10.518;2024-02-15T00:19:57;10.50;99.90
7002;DHT22;3541;53.230;10.518;2024-02-15T00:22:26;10.50;99.90
7002;DHT22;3541;53.230;10.518;2024-02-15T00:24:53;10.50;99.90
7002;DHT22;3541;53.230;10.518;2024-02-15T00:27:19;10.50;99.90
7002;DHT22;3541;53.230;10.518;2024-02-15T00:29:46;10.50;99.90
7002;DHT22;3541;53.230;10.518;2024-02-15T00:32:13;10.60;99.90
7002;DHT22;3541;53.230;10.518;2024-02-15T00:34:40;10.60;99.90
7002;DHT22;3541;53.230;10.518;2024-02-15T00:37:07;10.60;99.90
7002;DHT22;3541;53.230;10.518;2024-02-15T00:39:35;10.60;99.90
7002;DHT22;3541;53.230;10.518;2024-02-15T00:42:01;10.60;99.90
7002;DHT22;3541;53.230;10.518;2024-02-15T00:44:28;10.60;99.90
7002;DHT22;3541;53.230;10.518;2024-02-15T00:46:55;10.60;99.90
7002;DHT22;3541;53.230;10.518;2024-02-15T00:49:22;10.60;99.90
7002;DHT22;3541;53.230;10.518;2024-02-15T00:51:49;10.60;99.90
7002;DHT22;3541;53.230;10.518;2024-02-15T00:54:15;10.60;99.90
7002;DHT22;3541;53.230;10.518;2024-02-15T00:56:44;10.60;99.90
7002;DHT22;3541;53.230;10.518;2024-02-15T00:59:10;10.60;99.90
7002;DHT22;3541;53.230;10.518;2024-02-15T01:01:37;10.60;99.90
7002;DHT22;3541;53.230;10.518;2024-02-15T01:04:04;10.60;99.90
7002;DHT22;3541;53.230;10.518;2024-02-15T01:06:30;10.70;99.90
7002;DHT22;3541;53.230;10.518;2024-02-15T01:08:58;10.70;99.90
7002;DHT22;3541;53.230;10.518;2024-02-15T01:11:26;10.70;99.90
7002;DHT22;3541;53.230;10.518;2024-02-15T01:13:55;10.70;99.90
7002;DHT22;3541;53.230;10.518;2024-02-15T01:16:21;10.70;99.90
7002;DHT22;3541;53.230;10.518;2024-02-15T01:18:48;10.70;99.90
7002;DHT22;3541;53.230;10.518;2024-02-15T01:21:15;10.70;99.90
7002;DHT22;3541;53.230;10.518;2024-02-15T01:23:42;10.70;99.90
7002;DHT22;3541;53.230;10.518;2024-02-15T01:26:09;10.70;99.90
7002;DHT22;3541;53.230;10.518;2024-02-15T01:28:37;10.70;99.90
7002;DHT22;3541;53.230;10.518;2024-02-15T01:31:05;10.70;99.90
7002;DHT22;3541;53.230;10.518;2024-02-15T01:33:32;10.70;99.90
7002;DHT22;3541;53.230;10.518;2024-02-15T01:35:58;10.70;99.90
7002;DHT22;3541;53.230;10.518;2024-02-15T01:38:25;10.70;99.90
7002;DHT22;3541;53.230;10.518;2024-02-15T01:40:51;10.70;99.90
7002;DHT22;3541;53.230;10.518;2024-02-15T01:43:18;10.70;99.90
7002;DHT22;3541;53.230;10.518;2024-02-15T01:45:44;10.80;99.90
7002;DHT22;3541;53.230;10.518;2024-02-15T01:48:14;10.80;99.90
7002;DHT22;3541;53.230;10.518;2024-02-15T01:50:42;10.80;99.90
7002;DHT22;3541;53.230;10.518;2024-02-15T01:53:09;10.80;99.90
7002;DHT22;3541;53.230;10.518;2024-02-15T01:55:37;10.80;99.90
7002;DHT22;3541;53.230;10.518;2024-02-15T01:58:05;10.90;99.90
7002;DHT22;3541;53.230;10.518;2024-02-15T02:00:32;10.80;99.90
7002;DHT22;3541;53.230;10.518;2024-02-15T02:02:59;10.80;99.90
7002;DHT22;3541;53.230;10.518;2024-02-15T02:05:29;10.80;99.90
7002;DHT22;3541;53.230;10.518;2024-02-15T02:07:56;10.80;99.90
7002;DHT22;3541;53.230;10.518;2024-02-15T02:10:26;10.80;99.90
7002;DHT22;3541;53.230;10.518;2024-02-15T02:12:58;10.90;99.90
7002;DHT22;3541;53.230;10.518;2024-02-15T02:15:24;10.90;99.90
7002;DHT22;3541;53.230;10.518;2024-02-15T02:17:51;10.90;99.90
7002;DHT22;3541;53.230;10.518;2024-02-15T02:20:18;10.80;99.90
7002;DHT22;3541;53.230;10.518;2024-02-15T02:22:48;10.90;99.90
7002;DHT22;3541;53.230;10.518;2024-02-15T02:25:18;10.90;99.90
7002;DHT22;3541;53.230;10.518;2024-02-15T02:27:45;10.90;99.90
7002;DHT22;3541;53.230;10.518;2024-02-15T02:30:14;10.90;99.90
7002;DHT22;3541;53.230;10.518;2024-02-15T02:32:43;10.90;99.90
7002;DHT22;3541;53.230;10.518;2024-02-15T02:35:10;10.90;99.90
7002;DHT22;3541;53.230;10.518;2024-02-15T02:37:38;10.90;99.90
7002;DHT22;3541;53.230;10.518;2024-02-15T02:40:05;10.90;99.90
7002;DHT22;3541;53.230;10.518;2024-02-15T02:42:35;10.90;99.90
7002;DHT22;3541;53.230;10.518;2024-02-15T02:45:01;11.00;99.90
7002;DHT22;3541;53.230;10.518;2024-02-15T02:47:28;11.00;99.90
7002;DHT22;3541;53.230;10.518;2024-02-15T02:49:55;11.00;99.90
7002;DHT22;3541;53.230;10.518;2024-02-15T02:52:21;11.00;99.90
7002;DHT22;3541;53.230;10.518;2024-02-15T02:54:48;11.00;99.90
7002;DHT22;3541;53.230;10.518;2024-02-15T02:57:14;11.00;99.90
7002;DHT22;3541;53.230;10.518;2024-02-15T02:59:42;11.00;99.90
7002;DHT22;3541;53.230;10.518;2024-02-15T03:02:10;11.00;99.90
7002;DHT22;3541;53.230;10.518;2024-02-15T03:04:37;11.00;99.90
7002;DHT22;3541;53.230;10.518;2024-02-15T03:07:05;11.10;99.90
7002;DHT22;3541;53.230;10.518;2024-02-15T03:09:32;11.10;99.90
7002;DHT22;3541;53.230;10.518;2024-02-15T03:11:59;11.00;99.90
7002;DHT22;3541;53.230;10.518;2024-02-15T03:14:26;11.00;99.90
7002;DHT22;3541;53.230;10.518;2024-02-15T03:16:57;11.00;99.90
7002;DHT22;3541;53.230;10.518;2024-02-15T03:19:23;11.00;99.90
7002;DHT22;3541;53.230;10.518;2024-02-15T03:21:51;11.00;99.90
7002;DHT22;3541;53.230;10.518;2024-02-15T03:24:18;11.00;99.90
7002;DHT22;3541;53.230;10.518;2024-02-15T03:26:45;11.00;99.90
7002;DHT22;3541;53.230;10.518;2024-02-15T03:29:11;11.10;99.90
7002;DHT22;3541;53.230;10.518;2024-02-15T03:31:38;11.10;99.90
7002;DHT22;3541;53.230;10.518;2024-02-15T03:34:06;11.10;99.90
7002;DHT22;3541;53.230;10.518;2024-02-15T03:36:33;11.00;99.90
7002;DHT22;3541;53.230;10.518;2024-02-15T03:39:00;11.00;99.90
7002;DHT22;3541;53.230;10.518;2024-02-15T03:41:27;11.10;99.90
7002;DHT22;3541;53.230;10.518;2024-02-15T03:43:57;11.10;99.90
7002;DHT22;3541;53.230;10.518;2024-02-15T03:46:24;11.10;99.90
7002;DHT22;3541;53.230;10.518;2024-02-15T03:48:51;11.10;99.90
7002;DHT22;3541;53.230;10.518;2024-02-15T03:51:19;11.10;99.90
7002;DHT22;3541;53.230;10.518;2024-02-15T03:53:45;11.10;99.90
7002;DHT22;3541;53.230;10.518;2024-02-15T03:56:14;11.10;99.90
7002;DHT22;3541;53.230;10.518;2024-02-15T03:58:40;11.10;99.90
7002;DHT22;3541;53.230;10.518;2024-02-15T04:01:07;11.10;99.90
7002;DHT22;3541;53.230;10.518;2024-02-15T04:03:35;11.10;99.90
7002;DHT22;3541;53.230;10.518;2024-02-15T04:06:02;11.10;99.90
7002;DHT22;3541;53.230;10.518;2024-02-15T04:08:31;11.10;99.90
7002;DHT22;3541;53.230;10.518;2024-02-15T04:10:57;11.10;99.90
7002;DHT22;3541;53.230;10.518;2024-02-15T04:13:24;11.10;99.90
7002;DHT22;3541;53.230;10.518;2024-02-15T04:15:50;11.10;99.90
7002;DHT22;3541;53.230;10.518;2024-02-15T04:18:18;11.10;99.90
7002;DHT22;3541;53.230;10.518;2024-02-15T04:20:45;11.10;99.90
7002;DHT22;3541;53.230;10.518;2024-02-15T04:23:12;11.10;99.90
7002;DHT22;3541;53.230;10.518;2024-02-15T04:25:40;11.10;99.90
7002;DHT22;3541;53.230;10.518;2024-02-15T04:28:09;11.10;99.90
7002;DHT22;3541;53.230;10.518;2024-02-15T04:30:36;11.10;99.90
7002;DHT22;3541;53.230;10.518;2024-02-15T04:33:04;11.10;99.90
7002;DHT22;3541;53.230;10.518;2024-02-15T04:35:30;11.10;99.90
7002;DHT22;3541;53.230;10.518;2024-02-15T04:37:57;11.10;99.90
7002;DHT22;3541;53.230;10.518;2024-02-15T04:40:24;11.10;99.90
7002;DHT22;3541;53.230;10.518;2024-02-15T04:42:52;11.10;99.90
7002;DHT22;3541;53.230;10.518;2024-02-15T04:45:19;11.20;99.90
7002;DHT22;3541;53.230;10.518;2024-02-15T04:47:47;11.20;99.90
7002;DHT22;3541;53.230;10.518;2024-02-15T04:50:17;11.10;99.90
7002;DHT22;3541;53.230;10.518;2024-02-15T04:52:44;11.10;99.90
7002;DHT22;3541;53.230;10.518;2024-02-15T04:55:13;11.20;99.90
7002;DHT22;3541;53.230;10.518;2024-02-15T04:57:41;11.20;99.90
7002;DHT22;3541;53.230;10.518;2024-02-15T05:00:10;11.20;99.90
7002;DHT22;3541;53.230;10.518;2024-02-15T05:02:38;11.20;99.90
7002;DHT22;3541;53.230;10.518;2024-02-15T05:05:06;11.20;99.90
7002;DHT22;3541;53.230;10.518;2024-02-15T05:07:33;11.20;99.90
7002;DHT22;3541;53.230;10.518;2024-02-15T05:10:03;11.20;99.90
7002;DHT22;3541;53.230;10.518;2024-02-15T05:12:32;11.20;99.90
7002;DHT22;3541;53.230;10.518;2024-02-15T05:14:59;11.20;99.90
7002;DHT22;3541;53.230;10.518;2024-02-15T05:17:27;11.20;99.90
7002;DHT22;3541;53.230;10.518;2024-02-15T05:19:55;11.20;99.90
7002;DHT22;3541;53.230;10.518;2024-02-15T05:22:24;11.20;99.90
7002;DHT22;3541;53.230;10.518;2024-02-15T05:24:54;11.20;99.90
7002;DHT22;3541;53.230;10.518;2024-02-15T05:27:20;11.20;99.90
7002;DHT22;3541;53.230;10.518;2024-02-15T05:29:48;11.20;99.90
7002;DHT22;3541;53.230;10.518;2024-02-15T05:32:18;11.20;99.90
7002;DHT22;3541;53.230;10.518;2024-02-15T05:34:46;11.20;99.90
7002;DHT22;3541;53.230;10.518;2024-02-15T05:37:13;11.20;99.90
7002;DHT22;3541;53.230;10.518;2024-02-15T05:39:41;11.20;99.90
7002;DHT22;3541;53.230;10.518;2024-02-15T05:42:07;11.20;99.90
7002;DHT22;3541;53.230;10.518;2024-02-15T05:44:35;11.20;99.90
7002;DHT22;3541;53.230;10.518;2024-02-15T05:47:02;11.30;99.90
7002;DHT22;3541;53.230;10.518;2024-02-15T05:49:29;11.20;99.90
7002;DHT22;3541;53.230;10.518;2024-02-15T05:51:57;11.30;99.90
7002;DHT22;3541;53.230;10.518;2024-02-15T05:54:23;11.30;99.90
7002;DHT22;3541;53.230;10.518;2024-02-15T05:56:50;11.30;99.90
7002;DHT22;3541;53.230;10.518;2024-02-15T05:59:19;11.20;99.90
7002;DHT22;3541;53.230;10.518;2024-02-15T06:01:46;11.20;99.90
7002;DHT22;3541;53.230;10.518;2024-02-15T06:04:14;11.30;99.90
7002;DHT22;3541;53.230;10.518;2024-02-15T06:06:40;11.30;99.90
7002;DHT22;3541;53.230;10.518;2024-02-15T06:09:09;11.20;99.90
7002;DHT22;3541;53.230;10.518;2024-02-15T06:11:36;11.30;99.90
7002;DHT22;3541;53.230;10.518;2024-02-15T06:14:02;11.30;99.90
7002;DHT22;3541;53.230;10.518;2024-02-15T06:16:29;11.20;99.90
7002;DHT22;3541;53.230;10.518;2024-02-15T06:18:55;11.30;99.90
7002;DHT22;3541;53.230;10.518;2024-02-15T06:21:22;11.30;99.90
7002;DHT22;3541;53.230;10.518;2024-02-15T06:23:49;11.30;99.90
7002;DHT22;3541;53.230;10.518;2024-02-15T06:26:17;11.30;99.90
7002;DHT22;3541;53.230;10.518;2024-02-15T06:28:46;11.30;99.90
7002;DHT22;3541;53.230;10.518;2024-02-15T06:31:31;11.30;99.90
7002;DHT22;3541;53.230;10.518;2024-02-15T06:34:15;11.30;99.90
7002;DHT22;3541;53.230;10.518;2024-02-15T06:36:59;11.30;99.90
7002;DHT22;3541;53.230;10.518;2024-02-15T06:39:44;11.30;99.90
7002;DHT22;3541;53.230;10.518;2024-02-15T06:42:13;11.30;99.90
7002;DHT22;3541;53.230;10.518;2024-02-15T06:44:42;11.30;99.90
7002;DHT22;3541;53.230;10.518;2024-02-15T06:47:08;11.30;99.90
7002;DHT22;3541;53.230;10.518;2024-02-15T06:49:36;11.30;99.90
7002;DHT22;3541;53.230;10.518;2024-02-15T06:52:05;11.20;99.90
7002;DHT22;3541;53.230;10.518;2024-02-15T06:54:32;11.20;99.90
7002;DHT22;3541;53.230;10.518;2024-02-15T06:56:59;11.20;99.90
7002;DHT22;3541;53.230;10.518;2024-02-15T06:59:27;11.30;99.90
7002;DHT22;3541;53.230;10.518;2024-02-15T07:01:54;11.20;99.90
7002;DHT22;3541;53.230;10.518;2024-02-15T07:04:21;11.30;99.90
7002;DHT22;3541;53.230;10.518;2024-02-15T07:06:51;11.30;99.90
7002;DHT22;3541;53.230;10.518;2024-02-15T07:09:20;11.30;99.90
7002;DHT22;3541;53.230;10.518;2024-02-15T07:11:48;11.30;99.90
7002;DHT22;3541;53.230;10.518;2024-02-15T07:14:15;11.30;99.90
7002;DHT22;3541;53.230;10.518;2024-02-15T07:16:45;11.30;99.90
7002;DHT22;3541;53.230;10.518;2024-02-15T07:19:12;11.30;99.90
7002;DHT22;3541;53.230;10.518;2024-02-15T07:21:38;11.30;99.90
7002;DHT22;3541;53.230;10.518;2024-02-15T07:24:05;11.30;99.90
7002;DHT22;3541;53.230;10.518;2024-02-15T07:26:32;11.30;99.90
7002;DHT22;3541;53.230;10.518;2024-02-15T07:29:00;11.30;99.90
7002;DHT22;3541;53.230;10.518;2024-02-15T07:31:31;11.30;99.90
7002;DHT22;3541;53.230;10.518;2024-02-15T07:34:00;11.30;99.90
7002;DHT22;3541;53.230;10.518;2024-02-15T07:36:26;11.30;99.90
7002;DHT22;3541;53.230;10.518;2024-02-15T07:38:53;11.30;99.90
7002;DHT22;3541;53.230;10.518;2024-02-15T07:41:23;11.30;99.90
7002;DHT22;3541;53.230;10.518;2024-02-15T07:43:50;11.40;99.90
7002;DHT22;3541;53.230;10.518;2024-02-15T07:46:18;11.40;99.90
7002;DHT22;3541;53.230;10.518;2024-02-15T07:48:44;11.40;99.90
7002;DHT22;3541;53.230;10.518;2024-02-15T07:51:14;11.40;99.90
7002;DHT22;3541;53.230;10.518;2024-02-15T07:53:41;11.40;99.90
7002;DHT22;3541;53.230;10.518;2024-02-15T07:56:09;11.40;99.90
7002;DHT22;3541;53.230;10.518;2024-02-15T07:58:38;11.40;99.90
7002;DHT22;3541;53.230;10.518;2024-02-15T08:01:06;11.40;99.90
7002;DHT22;3541;53.230;10.518;2024-02-15T08:03:33;11.40;99.90
7002;DHT22;3541;53.230;10.518;2024-02-15T08:06:00;11.40;99.90
7002;DHT22;3541;53.230;10.518;2024-02-15T08:08:28;11.40;99.90
7002;DHT22;3541;53.230;10.518;2024-02-15T08:10:55;11.40;99.90
7002;DHT22;3541;53.230;10.518;2024-02-15T08:13:21;11.40;99.90
7002;DHT22;3541;53.230;10.518;2024-02-15T08:15:53;11.50;99.90
7002;DHT22;3541;53.230;10.518;2024-02-15T08:18:20;11.40;99.90
7002;DHT22;3541;53.230;10.518;2024-02-15T08:20:46;11.50;99.90
7002;DHT22;3541;53.230;10.518;2024-02-15T08:23:13;11.50;99.90
7002;DHT22;3541;53.230;10.518;2024-02-15T08:25:41;11.50;99.90
7002;DHT22;3541;53.230;10.518;2024-02-15T08:28:07;11.50;99.90
7002;DHT22;3541;53.230;10.518;2024-02-15T08:30:34;11.50;99.90
7002;DHT22;3541;53.230;10.518;2024-02-15T08:33:03;11.50;99.90
7002;DHT22;3541;53.230;10.518;2024-02-15T08:35:29;11.60;99.90
7002;DHT22;3541;53.230;10.518;2024-02-15T08:37:57;11.60;99.90
7002;DHT22;3541;53.230;10.518;2024-02-15T08:40:23;11.60;99.90
7002;DHT22;3541;53.230;10.518;2024-02-15T08:42:53;11.60;99.90
7002;DHT22;3541;53.230;10.518;2024-02-15T08:45:19;11.60;99.90
7002;DHT22;3541;53.230;10.518;2024-02-15T08:47:46;11.60;99.90
7002;DHT22;3541;53.230;10.518;2024-02-15T08:50:15;11.70;99.90
7002;DHT22;3541;53.230;10.518;2024-02-15T08:52:42;11.60;99.90
7002;DHT22;3541;53.230;10.518;2024-02-15T08:55:10;11.70;99.90
7002;DHT22;3541;53.230;10.518;2024-02-15T08:57:40;11.70;99.90
7002;DHT22;3541;53.230;10.518;2024-02-15T09:00:11;11.70;99.90
7002;DHT22;3541;53.230;10.518;2024-02-15T09:02:39;11.70;99.90
7002;DHT22;3541;53.230;10.518;2024-02-15T09:05:06;11.70;99.90
7002;DHT22;3541;53.230;10.518;2024-02-15T09:07:33;11.80;99.90
7002;DHT22;3541;53.230;10.518;2024-02-15T09:10:01;11.80;99.90
7002;DHT22;3541;53.230;10.518;2024-02-15T09:12:28;11.80;99.90
7002;DHT22;3541;53.230;10.518;2024-02-15T09:14:56;11.80;99.90
7002;DHT22;3541;53.230;10.518;2024-02-15T09:17:24;11.80;99.90
7002;DHT22;3541;53.230;10.518;2024-02-15T09:19:51;11.90;99.90
7002;DHT22;3541;53.230;10.518;2024-02-15T09:22:18;11.90;99.90
7002;DHT22;3541;53.230;10.518;2024-02-15T09:24:45;11.90;99.90
7002;DHT22;3541;53.230;10.518;2024-02-15T09:27:12;11.90;99.90
7002;DHT22;3541;53.230;10.518;2024-02-15T09:29:38;11.90;99.90
7002;DHT22;3541;53.230;10.518;2024-02-15T09:32:05;11.90;99.90
7002;DHT22;3541;53.230;10.518;2024-02-15T09:34:33;11.90;99.90
7002;DHT22;3541;53.230;10.518;2024-02-15T09:37:00;11.90;99.90
7002;DHT22;3541;53.230;10.518;2024-02-15T09:39:27;11.90;99.90
7002;DHT22;3541;53.230;10.518;2024-02-15T09:41:53;11.90;99.90
7002;DHT22;3541;53.230;10.518;2024-02-15T09:44:24;11.90;99.90
7002;DHT22;3541;53.230;10.518;2024-02-15T09:47:01;11.90;99.90
7002;DHT22;3541;53.230;10.518;2024-02-15T09:49:30;11.90;99.90
7002;DHT22;3541;53.230;10.518;2024-02-15T09:52:02;11.90;99.90
7002;DHT22;3541;53.230;10.518;2024-02-15T09:54:30;11.90;99.90
7002;DHT22;3541;53.230;10.518;2024-02-15T09:56:58;11.90;99.90
7002;DHT22;3541;53.230;10.518;2024-02-15T09:59:27;11.90;99.90
7002;DHT22;3541;53.230;10.518;2024-02-15T10:01:58;11.90;99.90
7002;DHT22;3541;53.230;10.518;2024-02-15T10:04:25;11.90;99.90
7002;DHT22;3541;53.230;10.518;2024-02-15T10:06:51;11.90;99.90
7002;DHT22;3541;53.230;10.518;2024-02-15T10:09:26;11.90;99.90
7002;DHT22;3541;53.230;10.518;2024-02-15T10:11:55;11.90;99.90
7002;DHT22;3541;53.230;10.518;2024-02-15T10:14:22;11.90;99.90
7002;DHT22;3541;53.230;10.518;2024-02-15T10:16:49;11.90;99.90
7002;DHT22;3541;53.230;10.518;2024-02-15T10:19:16;12.00;99.90
7002;DHT22;3541;53.230;10.518;2024-02-15T10:21:43;12.00;99.90
7002;DHT22;3541;53.230;10.518;2024-02-15T10:24:11;12.00;99.90
7002;DHT22;3541;53.230;10.518;2024-02-15T10:26:39;12.00;99.90
7002;DHT22;3541;53.230;10.518;2024-02-15T10:29:07;12.00;99.90
7002;DHT22;3541;53.230;10.518;2024-02-15T10:31:35;12.00;99.90
7002;DHT22;3541;53.230;10.518;2024-02-15T10:34:04;12.00;99.90
7002;DHT22;3541;53.230;10.518;2024-02-15T10:36:31;12.00;99.90
7002;DHT22;3541;53.230;10.518;2024-02-15T10:39:11;12.00;99.90
7002;DHT22;3541;53.230;10.518;2024-02-15T10:41:43;12.00;99.90
7002;DHT22;3541;53.230;10.518;2024-02-15T10:44:13;12.00;99.90
7002;DHT22;3541;53.230;10.518;2024-02-15T10:46:42;12.00;99.90
7002;DHT22;3541;53.230;10.518;2024-02-15T10:49:09;12.00;99.90
7002;DHT22;3541;53.230;10.518;2024-02-15T10:51:36;12.00;99.90
7002;DHT22;3541;53.230;10.518;2024-02-15T10:54:12;12.10;99.90
7002;DHT22;3541;53.230;10.518;2024-02-15T10:56:44;12.00;99.90
7002;DHT22;3541;53.230;10.518;2024-02-15T10:59:17;12.10;99.90
7002;DHT22;3541;53.230;10.518;2024-02-15T11:01:45;12.10;99.90
7002;DHT22;3541;53.230;10.518;2024-02-15T11:04:15;12.10;99.90
7002;DHT22;3541;53.230;10.518;2024-02-15T11:06:43;12.10;99.90
7002;DHT22;3541;53.230;10.518;2024-02-15T11:09:10;12.10;99.90
7002;DHT22;3541;53.230;10.518;2024-02-15T11:11:39;12.20;99.90
7002;DHT22;3541;53.230;10.518;2024-02-15T11:14:29;12.20;99.90
7002;DHT22;3541;53.230;10.518;2024-02-15T11:16:57;12.20;99.90
7002;DHT22;3541;53.230;10.518;2024-02-15T11:19:44;12.20;99.90
7002;DHT22;3541;53.230;10.518;2024-02-15T11:22:14;12.30;99.90
7002;DHT22;3541;53.230;10.518;2024-02-15T11:24:48;12.30;99.90
7002;DHT22;3541;53.230;10.518;2024-02-15T11:27:24;12.20;99.90
7002;DHT22;3541;53.230;10.518;2024-02-15T11:29:55;12.30;99.90
7002;DHT22;3541;53.230;10.518;2024-02-15T11:32:43;12.30;99.90
7002;DHT22;3541;53.230;10.518;2024-02-15T11:35:11;12.30;99.90
7002;DHT22;3541;53.230;10.518;2024-02-15T11:37:53;12.30;99.90
7002;DHT22;3541;53.230;10.518;2024-02-15T11:40:21;12.30;99.90
7002;DHT22;3541;53.230;10.518;2024-02-15T11:42:53;12.30;99.90
7002;DHT22;3541;53.230;10.518;2024-02-15T11:45:21;12.30;99.90
7002;DHT22;3541;53.230;10.518;2024-02-15T11:47:50;12.30;99.90
7002;DHT22;3541;53.230;10.518;2024-02-15T11:50:18;12.30;99.90
7002;DHT22;3541;53.230;10.518;2024-02-15T11:52:46;12.30;99.90
7002;DHT22;3541;53.230;10.518;2024-02-15T11:55:17;12.30;99.90
7002;DHT22;3541;53.230;10.518;2024-02-15T11:57:53;12.30;99.90
7002;DHT22;3541;53.230;10.518;2024-02-15T12:00:27;12.30;99.90
7002;DHT22;3541;53.230;10.518;2024-02-15T12:03:14;12.30;99.90
7002;DHT22;3541;53.230;10.518;2024-02-15T12:05:58;12.40;99.90
7002;DHT22;3541;53.230;10.518;2024-02-15T12:08:44;12.40;99.90
7002;DHT22;3541;53.230;10.518;2024-02-15T12:11:28;12.40;99.90
7002;DHT22;3541;53.230;10.518;2024-02-15T12:14:13;12.40;99.90
7002;DHT22;3541;53.230;10.518;2024-02-15T12:17:13;12.30;99.90
7002;DHT22;3541;53.230;10.518;2024-02-15T12:20:04;12.30;99.90
7002;DHT22;3541;53.230;10.518;2024-02-15T12:22:39;12.30;99.90
7002;DHT22;3541;53.230;10.518;2024-02-15T12:25:07;12.30;99.90
7002;DHT22;3541;53.230;10.518;2024-02-15T12:27:37;12.30;99.90
7002;DHT22;3541;53.230;10.518;2024-02-15T12:30:05;12.30;99.90
7002;DHT22;3541;53.230;10.518;2024-02-15T12:32:35;12.40;99.90
7002;DHT22;3541;53.230;10.518;2024-02-15T12:35:12;12.30;99.90
7002;DHT22;3541;53.230;10.518;2024-02-15T12:37:42;12.30;99.90
7002;DHT22;3541;53.230;10.518;2024-02-15T12:40:11;12.30;99.90
7002;DHT22;3541;53.230;10.518;2024-02-15T12:42:41;12.30;99.90
7002;DHT22;3541;53.230;10.518;2024-02-15T12:45:15;12.30;99.90
7002;DHT22;3541;53.230;10.518;2024-02-15T12:47:44;12.30;99.90
7002;DHT22;3541;53.230;10.518;2024-02-15T12:50:15;12.30;99.90
7002;DHT22;3541;53.230;10.518;2024-02-15T12:52:44;12.30;99.90
7002;DHT22;3541;53.230;10.518;2024-02-15T12:55:14;12.30;99.90
7002;DHT22;3541;53.230;10.518;2024-02-15T12:57:42;12.30;99.90
7002;DHT22;3541;53.230;10.518;2024-02-15T13:00:11;12.30;99.90
7002;DHT22;3541;53.230;10.518;2024-02-15T13:02:44;12.30;99.90
7002;DHT22;3541;53.230;10.518;2024-02-15T13:05:12;12.30;99.90
7002;DHT22;3541;53.230;10.518;2024-02-15T13:07:39;12.30;99.90
7002;DHT22;3541;53.230;10.518;2024-02-15T13:10:06;12.30;99.90
7002;DHT22;3541;53.230;10.518;2024-02-15T13:12:34;12.30;99.90
7002;DHT22;3541;53.230;10.518;2024-02-15T13:15:02;12.30;99.90
7002;DHT22;3541;53.230;10.518;2024-02-15T13:17:29;12.20;99.90
7002;DHT22;3541;53.230;10.518;2024-02-15T13:19:57;12.30;99.90
7002;DHT22;3541;53.230;10.518;2024-02-15T13:22:30;12.30;99.90
7002;DHT22;3541;53.230;10.518;2024-02-15T13:24:57;12.30;99.90
7002;DHT22;3541;53.230;10.518;2024-02-15T13:27:24;12.30;99.90
7002;DHT22;3541;53.230;10.518;2024-02-15T13:29:51;12.20;99.90
7002;DHT22;3541;53.230;10.518;2024-02-15T13:32:18;12.20;99.90
7002;DHT22;3541;53.230;10.518;2024-02-15T13:34:46;12.20;99.90
7002;DHT22;3541;53.230;10.518;2024-02-15T13:37:18;12.20;99.90
7002;DHT22;3541;53.230;10.518;2024-02-15T13:39:47;12.20;99.90
7002;DHT22;3541;53.230;10.518;2024-02-15T13:42:13;12.20;99.90
7002;DHT22;3541;53.230;10.518;2024-02-15T13:44:40;12.20;99.90
7002;DHT22;3541;53.230;10.518;2024-02-15T13:47:07;12.20;99.90
7002;DHT22;3541;53.230;10.518;2024-02-15T13:49:34;12.20;99.90
7002;DHT22;3541;53.230;10.518;2024-02-15T13:52:01;12.20;99.90
7002;DHT22;3541;53.230;10.518;2024-02-15T13:54:30;12.10;99.90
7002;DHT22;3541;53.230;10.518;2024-02-15T13:56:57;12.20;99.90
7002;DHT22;3541;53.230;10.518;2024-02-15T13:59:23;12.10;99.90
7002;DHT22;3541;53.230;10.518;2024-02-15T14:01:52;12.10;99.90
7002;DHT22;3541;53.230;10.518;2024-02-15T14:04:19;12.10;99.90
7002;DHT22;3541;53.230;10.518;2024-02-15T14:06:46;12.10;99.90
7002;DHT22;3541;53.230;10.518;2024-02-15T14:09:14;12.10;99.90
7002;DHT22;3541;53.230;10.518;2024-02-15T14:11:43;12.10;99.90
7002;DHT22;3541;53.230;10.518;2024-02-15T14:14:10;12.10;99.90
7002;DHT22;3541;53.230;10.518;2024-02-15T14:16:37;12.10;99.90
7002;DHT22;3541;53.230;10.518;2024-02-15T14:19:04;12.10;99.90
7002;DHT22;3541;53.230;10.518;2024-02-15T14:21:31;12.20;99.90
7002;DHT22;3541;53.230;10.518;2024-02-15T14:24:05;12.10;99.90
7002;DHT22;3541;53.230;10.518;2024-02-15T14:26:32;12.10;99.90
7002;DHT22;3541;53.230;10.518;2024-02-15T14:29:00;12.10;99.90
7002;DHT22;3541;53.230;10.518;2024-02-15T14:31:28;12.20;99.90
7002;DHT22;3541;53.230;10.518;2024-02-15T14:34:12;12.20;99.90
7002;DHT22;3541;53.230;10.518;2024-02-15T14:36:39;12.20;99.90
7002;DHT22;3541;53.230;10.518;2024-02-15T14:39:08;12.20;99.90
7002;DHT22;3541;53.230;10.518;2024-02-15T14:41:35;12.20;99.90
7002;DHT22;3541;53.230;10.518;2024-02-15T14:44:04;12.20;99.90
7002;DHT22;3541;53.230;10.518;2024-02-15T14:46:32;12.20;99.90
7002;DHT22;3541;53.230;10.518;2024-02-15T14:49:00;12.20;99.90
7002;DHT22;3541;53.230;10.518;2024-02-15T14:51:27;12.20;99.90
7002;DHT22;3541;53.230;10.518;2024-02-15T14:53:53;12.20;99.90
7002;DHT22;3541;53.230;10.518;2024-02-15T14:56:20;12.20;99.90
7002;DHT22;3541;53.230;10.518;2024-02-15T14:58:46;12.20;99.90
7002;DHT22;3541;53.230;10.518;2024-02-15T15:01:14;12.20;99.90
7002;DHT22;3541;53.230;10.518;2024-02-15T15:03:41;12.20;99.90
7002;DHT22;3541;53.230;10.518;2024-02-15T15:06:08;12.20;99.90
7002;DHT22;3541;53.230;10.518;2024-02-15T15:08:52;12.20;99.90
7002;DHT22;3541;53.230;10.518;2024-02-15T15:11:36;12.20;99.90
7002;DHT22;3541;53.230;10.518;2024-02-15T15:14:21;12.20;99.90
7002;DHT22;3541;53.230;10.518;2024-02-15T15:16:49;12.20;99.90
7002;DHT22;3541;53.230;10.518;2024-02-15T15:19:15;12.20;99.90
7002;DHT22;3541;53.230;10.518;2024-02-15T15:21:42;12.20;99.90
7002;DHT22;3541;53.230;10.518;2024-02-15T15:24:08;12.10;99.90
7002;DHT22;3541;53.230;10.518;2024-02-15T15:26:36;12.20;99.90
7002;DHT22;3541;53.230;10.518;2024-02-15T15:29:02;12.20;99.90
7002;DHT22;3541;53.230;10.518;2024-02-15T15:31:30;12.20;99.90
7002;DHT22;3541;53.230;10.518;2024-02-15T15:33:59;12.20;99.90
7002;DHT22;3541;53.230;10.518;2024-02-15T15:36:26;12.20;99.90
7002;DHT22;3541;53.230;10.518;2024-02-15T15:38:53;12.20;99.90
7002;DHT22;3541;53.230;10.518;2024-02-15T15:41:20;12.20;99.90
7002;DHT22;3541;53.230;10.518;2024-02-15T15:43:47;12.20;99.90
7002;DHT22;3541;53.230;10.518;2024-02-15T15:46:15;12.10;99.90
7002;DHT22;3541;53.230;10.518;2024-02-15T15:48:42;12.10;99.90
7002;DHT22;3541;53.230;10.518;2024-02-15T15:51:11;12.10;99.90
7002;DHT22;3541;53.230;10.518;2024-02-15T15:53:39;12.20;99.90